Time;durP1;ratioP1;P1;durP2;ratioP2;P2;SDS_P1;SDS_P2;PMS_P1;PMS_P2;Temp;Humidity;BMP_temperature;BMP_pressure;BME280_temperature;BME280_humidity;BME280_pressure;Samples;Min_cycle;Max_cycle;Signal;HPM_P1;HPM_P2
2022/01/03 00:00:17;;;;;;;15.93;2.58;;;8.80;92.20;;;;;;5131160;27;20047;-69
2022/01/03 00:02:44;;;;;;;19.88;2.92;;;8.70;92.00;;;;;;5100015;28;20374;-70
2022/01/03 00:05:11;;;;;;;14.88;3.20;;;8.80;92.00;;;;;;5089633;28;20503;-69
2022/01/03 00:07:42;;;;;;;35.17;7.90;;;8.80;91.90;;;;;;5089366;28;20135;-69
2022/01/03 00:10:09;;;;;;;22.65;3.85;;;8.90;91.80;;;;;;5090579;28;20032;-69
2022/01/03 00:12:37;;;;;;;19.15;3.38;;;8.80;91.60;;;;;;5089918;28;20098;-70
2022/01/03 00:15:04;;;;;;;18.02;3.80;;;8.70;91.60;;;;;;5088172;28;20482;-70
2022/01/03 00:17:30;;;;;;;22.30;3.95;;;8.70;91.80;;;;;;5090550;28;20106;-69
2022/01/03 00:19:55;;;;;;;19.15;3.70;;;8.80;91.70;;;;;;5090345;28;20431;-70
2022/01/03 00:22:24;;;;;;;22.02;3.72;;;8.80;91.60;;;;;;5072138;28;20044;-70
2022/01/03 00:25:01;;;;;;;13.30;4.43;;;8.80;91.50;;;;;;5088488;28;20727;-69
2022/01/03 00:27:39;;;;;;;18.92;3.80;;;8.80;91.40;;;;;;5089104;28;20048;-69
2022/01/03 00:30:06;;;;;;;17.75;5.13;;;8.80;91.50;;;;;;5071523;28;20146;-70
2022/01/03 00:32:36;;;;;;;29.23;5.28;;;8.90;91.40;;;;;;5090274;28;20340;-69
2022/01/03 00:35:03;;;;;;;21.38;4.18;;;8.80;91.30;;;;;;5089229;28;20043;-70
2022/01/03 00:37:30;;;;;;;21.42;4.60;;;8.80;91.10;;;;;;5088711;28;20083;-69
2022/01/03 00:39:57;;;;;;;19.73;4.28;;;8.80;91.20;;;;;;5089337;28;20054;-70
2022/01/03 00:42:23;;;;;;;27.45;4.72;;;8.90;91.20;;;;;;5088736;28;20055;-70
2022/01/03 00:44:51;;;;;;;22.10;4.80;;;8.80;91.00;;;;;;5089234;28;20036;-69
2022/01/03 00:47:17;;;;;;;24.88;3.72;;;8.80;91.10;;;;;;5070938;28;20055;-70
2022/01/03 00:49:42;;;;;;;17.45;3.13;;;8.90;91.10;;;;;;5089460;28;20047;-69
2022/01/03 00:52:10;;;;;;;30.35;5.03;;;8.90;91.00;;;;;;5088537;28;20096;-71
2022/01/03 00:54:35;;;;;;;25.58;4.40;;;8.90;90.70;;;;;;5089528;28;20043;-70
2022/01/03 00:57:06;;;;;;;23.15;4.95;;;8.90;90.80;;;;;;5089251;28;20043;-70
2022/01/03 00:59:39;;;;;;;22.50;4.28;;;8.90;90.60;;;;;;5088603;28;20087;-69
2022/01/03 01:02:07;;;;;;;28.30;4.72;;;8.90;90.50;;;;;;5091029;28;20071;-70
2022/01/03 01:04:33;;;;;;;27.73;6.03;;;8.90;90.50;;;;;;5108770;28;20052;-70
2022/01/03 01:06:59;;;;;;;23.33;4.07;;;8.90;90.30;;;;;;5108325;28;20050;-69
2022/01/03 01:09:27;;;;;;;25.80;4.63;;;9.00;90.10;;;;;;5109810;28;20751;-70
2022/01/03 01:11:55;;;;;;;31.60;4.95;;;9.00;90.30;;;;;;5109378;28;20040;-70
2022/01/03 01:14:22;;;;;;;27.55;7.32;;;9.00;90.30;;;;;;5106483;27;20036;-70
2022/01/03 01:16:49;;;;;;;26.45;4.72;;;9.10;90.40;;;;;;5105984;28;20055;-70
2022/01/03 01:19:16;;;;;;;29.52;5.22;;;9.10;90.20;;;;;;5109677;28;20517;-69
2022/01/03 01:21:42;;;;;;;29.38;5.75;;;9.00;90.30;;;;;;5109733;28;20044;-69
2022/01/03 01:24:08;;;;;;;26.90;5.30;;;9.10;90.30;;;;;;5108591;28;20384;-69
2022/01/03 01:29:17;;;;;;;22.52;4.22;;;9.20;89.90;;;;;;5107834;28;20500;-69
2022/01/03 01:31:49;;;;;;;22.00;5.13;;;9.20;89.80;;;;;;5107910;28;20047;-70
2022/01/03 01:34:25;;;;;;;26.65;5.75;;;9.40;89.70;;;;;;5107552;28;20044;-69
2022/01/03 01:36:53;;;;;;;29.17;4.90;;;9.20;89.70;;;;;;5109548;28;20120;-69
2022/01/03 01:39:21;;;;;;;22.75;4.78;;;9.20;89.70;;;;;;5108617;28;20069;-70
2022/01/03 01:41:47;;;;;;;31.83;4.70;;;9.20;89.70;;;;;;5109367;28;20050;-69
2022/01/03 01:44:14;;;;;;;31.90;5.95;;;9.30;89.50;;;;;;5108990;28;20522;-69
2022/01/03 01:46:46;;;;;;;23.23;5.07;;;9.30;89.40;;;;;;5108355;28;20051;-69
2022/01/03 01:49:23;;;;;;;22.75;4.45;;;9.20;89.60;;;;;;5109367;28;20046;-69
2022/01/03 01:51:59;;;;;;;30.23;4.70;;;9.20;89.40;;;;;;5108756;28;20048;-70
2022/01/03 01:54:31;;;;;;;35.03;6.00;;;9.20;89.50;;;;;;5108881;28;20063;-69
2022/01/03 01:57:17;;;;;;;37.47;5.10;;;9.10;89.30;;;;;;5090648;28;20048;-69
2022/01/03 02:00:08;;;;;;;22.58;3.95;;;9.20;89.20;;;;;;5109027;28;20081;-70
2022/01/03 02:02:36;;;;;;;26.85;4.20;;;9.10;89.30;;;;;;5116214;28;20059;-69
2022/01/03 02:05:38;;;;;;;28.65;4.30;;;9.10;89.20;;;;;;5129676;28;20049;-69
2022/01/03 02:08:17;;;;;;;19.90;5.38;;;9.10;89.20;;;;;;5129428;27;20099;-70
2022/01/03 02:10:44;;;;;;;25.42;4.28;;;9.10;89.20;;;;;;5129844;27;20118;-69
2022/01/03 02:13:14;;;;;;;22.23;4.22;;;9.10;89.20;;;;;;5128960;27;20130;-69
2022/01/03 02:15:45;;;;;;;28.75;4.55;;;9.10;89.20;;;;;;5128647;28;20046;-69
2022/01/03 02:18:11;;;;;;;25.98;4.57;;;9.10;89.30;;;;;;5129597;28;20043;-69
2022/01/03 02:20:37;;;;;;;26.88;5.00;;;9.10;89.30;;;;;;5129262;27;20407;-69
2022/01/03 02:23:03;;;;;;;25.60;4.57;;;9.10;89.40;;;;;;5129714;27;20042;-69
2022/01/03 02:25:29;;;;;;;33.75;6.32;;;9.00;89.10;;;;;;5129232;27;20054;-69
2022/01/03 02:27:56;;;;;;;34.65;5.50;;;9.10;89.20;;;;;;5110569;28;20046;-70
2022/01/03 02:30:25;;;;;;;42.97;6.57;;;9.10;89.20;;;;;;5110745;28;20134;-69
2022/01/03 02:32:52;;;;;;;32.20;4.88;;;9.10;89.20;;;;;;5125375;28;20050;-69
2022/01/03 02:35:18;;;;;;;23.60;4.93;;;9.00;89.10;;;;;;5093443;27;20051;-70
2022/01/03 02:37:45;;;;;;;25.67;4.45;;;9.00;89.30;;;;;;5129027;28;20058;-69
2022/01/03 02:40:11;;;;;;;24.85;5.07;;;8.90;89.20;;;;;;5132892;27;20043;-70
2022/01/03 02:42:38;;;;;;;36.70;5.38;;;8.90;89.30;;;;;;5132585;27;20152;-69
2022/01/03 02:45:12;;;;;;;28.40;4.47;;;8.90;89.40;;;;;;5114904;27;20035;-70
2022/01/03 02:47:39;;;;;;;27.23;5.20;;;9.10;89.30;;;;;;5132444;27;20046;-69
2022/01/03 02:50:07;;;;;;;36.83;4.72;;;9.10;89.10;;;;;;5114425;27;20058;-69
2022/01/03 02:52:35;;;;;;;39.28;6.57;;;9.00;89.20;;;;;;5113179;27;20043;-70
2022/01/03 02:55:02;;;;;;;36.35;5.70;;;9.10;88.90;;;;;;5133144;27;20054;-69
2022/01/03 02:57:43;;;;;;;23.88;4.45;;;9.00;89.20;;;;;;5132727;27;20049;-70
2022/01/03 03:00:13;;;;;;;32.90;6.47;;;9.00;89.10;;;;;;5132483;27;20039;-69
2022/01/03 03:02:39;;;;;;;27.45;4.78;;;9.00;88.90;;;;;;5113864;27;20555;-70
2022/01/03 03:05:07;;;;;;;29.60;6.10;;;9.00;88.90;;;;;;5114510;27;20053;-69
2022/01/03 03:07:33;;;;;;;37.90;5.60;;;9.00;88.90;;;;;;5132151;27;20072;-69
2022/01/03 03:10:00;;;;;;;30.42;4.85;;;9.00;89.00;;;;;;5132321;27;20039;-69
2022/01/03 03:12:26;;;;;;;36.97;6.18;;;9.10;89.00;;;;;;5132354;27;20042;-69
2022/01/03 03:14:52;;;;;;;37.65;5.45;;;9.00;88.60;;;;;;5132509;27;20039;-70
2022/01/03 03:17:18;;;;;;;34.63;6.43;;;8.90;88.80;;;;;;5131985;27;20042;-70
2022/01/03 03:20:06;;;;;;;26.35;4.50;;;8.90;88.90;;;;;;5112321;27;20079;-70
2022/01/03 03:22:32;;;;;;;28.50;4.70;;;9.00;88.90;;;;;;5114231;27;20050;-70
2022/01/03 03:25:03;;;;;;;29.98;4.82;;;9.00;88.80;;;;;;5132263;27;20491;-70
2022/01/03 03:27:29;;;;;;;27.67;5.35;;;9.00;88.70;;;;;;5131816;27;20054;-70
2022/01/03 03:29:54;;;;;;;38.97;5.10;;;9.10;88.50;;;;;;5132419;27;20457;-70
2022/01/03 03:32:20;;;;;;;30.27;5.45;;;9.00;88.50;;;;;;5131314;27;20063;-70
2022/01/03 03:34:48;;;;;;;27.60;5.82;;;8.90;88.80;;;;;;5113664;27;20035;-70
2022/01/03 03:37:15;;;;;;;30.83;5.28;;;8.90;88.70;;;;;;5131903;27;20135;-70
2022/01/03 03:39:41;;;;;;;30.13;5.50;;;9.00;88.70;;;;;;5132041;27;20074;-70
2022/01/03 03:42:08;;;;;;;29.80;4.93;;;9.00;88.70;;;;;;5113025;27;20440;-70
2022/01/03 03:44:35;;;;;;;27.40;5.15;;;9.00;88.70;;;;;;5131850;27;20039;-70
2022/01/03 03:47:01;;;;;;;34.42;5.47;;;9.00;88.80;;;;;;5095661;27;20100;-70
2022/01/03 03:49:26;;;;;;;28.75;6.10;;;8.90;88.90;;;;;;5130983;27;20047;-70
2022/01/03 03:51:52;;;;;;;25.85;4.63;;;8.90;88.90;;;;;;5130497;27;20580;-70
2022/01/03 03:54:17;;;;;;;35.47;5.68;;;8.90;88.90;;;;;;5131287;27;20074;-70
2022/01/03 03:56:43;;;;;;;30.35;5.60;;;8.80;89.10;;;;;;5132134;27;20035;-70
2022/01/03 03:59:09;;;;;;;22.05;4.97;;;8.90;89.20;;;;;;5112955;27;20043;-70
2022/01/03 04:01:35;;;;;;;28.75;5.00;;;8.90;89.20;;;;;;5130857;27;20051;-70
2022/01/03 04:04:01;;;;;;;30.85;5.97;;;8.80;89.20;;;;;;5112328;27;20043;-70
2022/01/03 04:06:26;;;;;;;28.83;5.55;;;8.90;89.20;;;;;;5131510;27;20051;-70
2022/01/03 04:08:52;;;;;;;30.90;5.03;;;8.80;89.30;;;;;;5131268;27;20035;-71
2022/01/03 04:11:18;;;;;;;36.92;7.55;;;8.70;89.40;;;;;;5131610;27;20047;-70
2022/01/03 04:13:44;;;;;;;32.95;6.20;;;8.80;89.30;;;;;;5130443;27;20092;-70
2022/01/03 04:16:10;;;;;;;34.72;6.78;;;8.80;89.50;;;;;;5131217;27;20043;-70
2022/01/03 04:18:35;;;;;;;29.23;6.07;;;8.80;89.40;;;;;;5131056;27;20063;-71
2022/01/03 04:21:01;;;;;;;30.58;5.95;;;8.90;89.30;;;;;;5131179;27;20074;-70
2022/01/03 04:23:27;;;;;;;30.45;4.45;;;8.80;89.40;;;;;;5130876;27;20530;-70
2022/01/03 04:25:52;;;;;;;31.65;5.13;;;8.90;89.40;;;;;;5131378;27;20522;-70
2022/01/03 04:28:19;;;;;;;28.88;5.28;;;8.80;89.50;;;;;;5112201;27;20070;-70
2022/01/03 04:30:45;;;;;;;41.75;8.25;;;8.80;89.60;;;;;;5130312;27;20523;-70
2022/01/03 04:33:11;;;;;;;28.17;5.57;;;8.80;89.60;;;;;;5130847;27;20043;-70
2022/01/03 04:35:38;;;;;;;36.90;5.45;;;8.70;89.60;;;;;;5130323;27;20054;-70
2022/01/03 04:38:04;;;;;;;41.47;8.48;;;8.70;89.50;;;;;;5131154;27;20047;-70
2022/01/03 04:40:30;;;;;;;39.38;5.97;;;8.70;89.60;;;;;;5130249;27;20039;-71
2022/01/03 04:42:56;;;;;;;41.15;6.15;;;8.80;89.60;;;;;;5130323;27;20042;-70
2022/01/03 04:45:22;;;;;;;42.28;6.90;;;8.80;89.50;;;;;;5130384;27;20043;-70
2022/01/03 04:47:47;;;;;;;31.50;5.45;;;8.70;89.60;;;;;;5130317;27;20043;-70
2022/01/03 04:50:13;;;;;;;32.83;5.47;;;8.80;89.60;;;;;;5130596;27;20047;-70
2022/01/03 04:52:39;;;;;;;26.20;5.53;;;8.80;89.60;;;;;;5130801;27;20095;-70
2022/01/03 04:55:05;;;;;;;40.88;6.63;;;8.90;89.50;;;;;;5130297;27;20125;-70
2022/01/03 04:57:30;;;;;;;31.35;5.40;;;8.90;89.20;;;;;;5130110;27;20483;-70
2022/01/03 04:59:56;;;;;;;38.25;5.97;;;8.90;89.40;;;;;;5112171;27;20046;-70
2022/01/03 05:02:22;;;;;;;29.98;5.80;;;8.90;89.40;;;;;;5129247;27;20069;-70
2022/01/03 05:04:48;;;;;;;24.05;5.28;;;8.90;89.30;;;;;;5130770;27;20539;-70
2022/01/03 05:07:14;;;;;;;38.70;7.57;;;8.90;89.20;;;;;;5130074;27;20050;-70
2022/01/03 05:09:39;;;;;;;36.88;6.18;;;8.90;89.10;;;;;;5129325;27;20039;-70
2022/01/03 05:12:06;;;;;;;36.65;5.72;;;8.90;89.20;;;;;;5129755;27;20035;-70
2022/01/03 05:14:31;;;;;;;35.85;6.90;;;8.90;89.50;;;;;;5111447;27;20057;-69
2022/01/03 05:16:57;;;;;;;37.20;6.45;;;8.90;89.20;;;;;;5130199;27;20047;-70
2022/01/03 05:19:24;;;;;;;30.70;6.18;;;8.90;89.30;;;;;;5111440;27;20058;-70
2022/01/03 05:21:51;;;;;;;38.80;7.90;;;8.80;89.30;;;;;;5129378;27;20187;-70
2022/01/03 05:24:17;;;;;;;31.98;7.13;;;8.80;89.30;;;;;;5130003;27;20491;-70
2022/01/03 05:26:43;;;;;;;38.70;7.05;;;8.80;89.50;;;;;;5130241;27;20042;-70
2022/01/03 05:29:09;;;;;;;35.78;5.43;;;8.80;89.50;;;;;;5130149;27;20070;-70
2022/01/03 05:31:35;;;;;;;37.65;6.32;;;8.70;89.60;;;;;;5111077;27;20130;-70
2022/01/03 05:34:00;;;;;;;36.15;6.53;;;8.70;89.70;;;;;;5111668;27;20074;-70
2022/01/03 05:36:27;;;;;;;33.78;5.88;;;8.70;89.70;;;;;;5129705;27;20036;-70
2022/01/03 05:38:53;;;;;;;37.33;5.03;;;8.80;89.60;;;;;;5109789;28;20090;-70
2022/01/03 05:41:18;;;;;;;46.25;6.35;;;8.80;89.50;;;;;;5119255;28;20055;-70
2022/01/03 05:43:45;;;;;;;43.33;7.28;;;8.80;89.50;;;;;;5128923;28;20047;-69
2022/01/03 05:46:12;;;;;;;30.73;5.25;;;8.80;89.40;;;;;;5123818;27;20551;-69
2022/01/03 05:48:38;;;;;;;28.85;5.93;;;8.90;89.30;;;;;;5129309;28;20440;-70
2022/01/03 05:51:03;;;;;;;39.20;5.47;;;9.00;89.10;;;;;;5129410;28;20043;-70
2022/01/03 05:53:30;;;;;;;26.17;5.38;;;8.90;89.20;;;;;;5094636;28;20039;-70
2022/01/03 05:55:57;;;;;;;44.58;6.55;;;9.00;88.90;;;;;;5111005;28;20051;-71
2022/01/03 05:58:23;;;;;;;61.75;10.82;;;9.00;88.80;;;;;;5129545;27;20039;-70
2022/01/03 06:00:48;;;;;;;50.75;8.50;;;8.90;88.90;;;;;;5129743;28;20124;-70
2022/01/03 06:03:17;;;;;;;36.78;6.05;;;8.90;88.90;;;;;;5119243;28;20044;-71
2022/01/03 06:08:21;;;;;;;41.30;6.13;;;8.90;89.10;;;;;;5125673;28;20043;-70
2022/01/03 06:10:47;;;;;;;45.17;8.60;;;8.90;89.00;;;;;;5114501;28;20042;-70
2022/01/03 06:13:13;;;;;;;51.65;8.88;;;8.90;88.90;;;;;;5129082;27;20035;-71
2022/01/03 06:15:39;;;;;;;44.25;9.45;;;9.00;88.90;;;;;;5132600;27;20297;-70
2022/01/03 06:18:10;;;;;;;37.55;5.25;;;8.90;89.00;;;;;;5133682;27;20047;-72
2022/01/03 06:20:38;;;;;;;45.58;9.07;;;8.90;89.00;;;;;;5133362;27;20039;-70
2022/01/03 06:23:04;;;;;;;46.38;7.18;;;8.90;89.00;;;;;;5133036;27;20054;-70
2022/01/03 06:25:29;;;;;;;42.38;6.00;;;8.90;88.90;;;;;;5097952;27;20043;-70
2022/01/03 06:27:55;;;;;;;35.97;5.90;;;8.90;89.00;;;;;;5133019;27;20062;-71
2022/01/03 06:30:21;;;;;;;46.00;8.82;;;8.90;89.10;;;;;;5133600;27;20042;-70
2022/01/03 06:32:47;;;;;;;36.17;5.60;;;8.80;89.10;;;;;;5113781;27;20116;-71
2022/01/03 06:35:13;;;;;;;41.38;9.05;;;8.80;89.20;;;;;;5119332;27;20174;-71
2022/01/03 06:37:38;;;;;;;38.53;5.18;;;8.70;89.20;;;;;;5132544;27;20089;-71
2022/01/03 06:40:06;;;;;;;37.38;6.15;;;8.70;89.20;;;;;;5132685;27;20035;-71
2022/01/03 06:42:32;;;;;;;36.30;7.35;;;8.70;89.40;;;;;;5132333;27;20175;-71
2022/01/03 06:44:58;;;;;;;38.63;5.88;;;8.70;89.30;;;;;;5132904;27;20110;-71
2022/01/03 06:47:23;;;;;;;41.17;6.80;;;8.80;89.40;;;;;;5132424;27;20172;-71
2022/01/03 06:49:49;;;;;;;41.17;6.38;;;8.80;89.20;;;;;;5133479;27;20096;-71
2022/01/03 06:52:15;;;;;;;36.38;7.13;;;8.90;89.20;;;;;;5132188;27;20115;-70
2022/01/03 06:54:40;;;;;;;41.85;6.65;;;8.80;89.30;;;;;;5114813;27;20126;-71
2022/01/03 06:57:06;;;;;;;32.40;5.60;;;8.80;89.30;;;;;;5132760;27;20044;-71
2022/01/03 06:59:33;;;;;;;39.03;5.95;;;8.80;89.30;;;;;;5132994;27;20047;-71
2022/01/03 07:01:58;;;;;;;34.92;6.32;;;8.80;89.30;;;;;;5131746;27;20062;-71
2022/01/03 07:04:24;;;;;;;47.55;7.78;;;8.80;89.60;;;;;;5132491;27;20411;-71
2022/01/03 07:06:49;;;;;;;36.85;7.18;;;8.80;89.60;;;;;;5132628;27;20539;-71
2022/01/03 07:09:15;;;;;;;41.20;8.13;;;8.80;89.50;;;;;;5114884;27;20050;-71
2022/01/03 07:11:41;;;;;;;30.17;7.13;;;8.80;89.60;;;;;;5114074;27;20039;-70
2022/01/03 07:19:35;;;;;;;44.20;6.30;;;8.70;89.70;;;;;;5113637;27;20430;-70
2022/01/03 07:22:04;;;;;;;35.75;5.75;;;8.60;89.90;;;;;;5132418;27;20031;-71
2022/01/03 07:24:32;;;;;;;33.65;5.30;;;8.60;90.20;;;;;;5131787;27;20043;-71
2022/01/03 07:27:01;;;;;;;33.08;6.70;;;8.60;90.30;;;;;;5131214;27;20039;-71
2022/01/03 07:29:27;;;;;;;33.92;6.28;;;8.60;90.30;;;;;;5124942;27;20547;-71
2022/01/03 07:31:52;;;;;;;35.75;6.70;;;8.70;90.20;;;;;;5131783;27;20047;-71
2022/01/03 07:34:18;;;;;;;35.65;6.32;;;8.80;90.20;;;;;;5097149;27;20039;-70
2022/01/03 07:36:44;;;;;;;35.80;6.15;;;8.70;90.20;;;;;;5132192;27;20167;-70
2022/01/03 07:39:09;;;;;;;38.47;6.70;;;8.70;90.30;;;;;;5112480;27;20490;-70
2022/01/03 07:41:35;;;;;;;51.00;8.57;;;8.80;90.20;;;;;;5131228;27;20031;-71
2022/01/03 07:44:00;;;;;;;37.83;7.35;;;8.80;90.20;;;;;;5131134;27;20442;-71
2022/01/03 07:46:26;;;;;;;44.40;6.38;;;8.70;90.20;;;;;;5130902;27;20172;-70
2022/01/03 07:48:52;;;;;;;28.80;5.88;;;8.70;90.20;;;;;;5131373;27;20135;-70
2022/01/03 07:51:17;;;;;;;30.88;4.90;;;8.70;90.20;;;;;;5123258;27;20043;-69
2022/01/03 07:53:43;;;;;;;39.38;7.53;;;8.70;90.30;;;;;;5132156;27;20484;-69
2022/01/03 07:56:10;;;;;;;43.42;7.88;;;8.80;90.10;;;;;;5113404;27;20118;-69
2022/01/03 07:58:36;;;;;;;35.47;5.70;;;8.90;90.00;;;;;;5131738;27;20136;-70
2022/01/03 08:01:04;;;;;;;37.08;6.32;;;8.80;89.90;;;;;;5112519;27;20046;-69
2022/01/03 08:03:30;;;;;;;37.25;5.70;;;8.80;89.90;;;;;;5127317;27;20051;-69
2022/01/03 08:05:55;;;;;;;35.15;6.18;;;8.90;89.90;;;;;;5131941;27;20100;-69
2022/01/03 08:08:21;;;;;;;39.53;6.80;;;8.90;89.80;;;;;;5125356;27;20055;-69
2022/01/03 08:10:47;;;;;;;29.48;6.32;;;8.90;89.70;;;;;;5085672;27;20051;-69
2022/01/03 08:13:14;;;;;;;36.97;6.03;;;8.90;89.70;;;;;;5131481;27;20046;-69
2022/01/03 08:15:40;;;;;;;35.03;6.85;;;9.00;89.60;;;;;;5130405;27;20035;-69
2022/01/03 08:18:06;;;;;;;33.50;6.40;;;9.00;89.50;;;;;;5130434;27;20035;-69
2022/01/03 08:20:32;;;;;;;33.65;5.53;;;9.10;89.40;;;;;;5115387;27;20036;-69
2022/01/03 08:22:58;;;;;;;39.80;7.72;;;9.00;89.50;;;;;;5130622;27;20096;-69
2022/01/03 08:25:24;;;;;;;32.65;5.38;;;9.10;89.20;;;;;;5130342;27;20027;-69
2022/01/03 08:27:50;;;;;;;34.60;5.85;;;9.10;89.20;;;;;;5129148;27;20175;-69
2022/01/03 08:30:16;;;;;;;35.75;4.90;;;9.10;89.20;;;;;;5113092;27;20050;-69
2022/01/03 08:32:42;;;;;;;32.38;4.55;;;9.10;89.20;;;;;;5130510;27;20039;-69
2022/01/03 08:35:08;;;;;;;34.08;6.97;;;9.10;89.30;;;;;;5130139;27;20104;-69
2022/01/03 08:37:34;;;;;;;33.97;5.95;;;9.10;89.10;;;;;;5130193;27;20454;-69
2022/01/03 08:40:04;;;;;;;37.78;5.38;;;9.20;88.90;;;;;;5114561;27;20035;-70
2022/01/03 08:42:31;;;;;;;32.92;5.93;;;9.10;89.00;;;;;;5116077;27;20159;-69
2022/01/03 08:44:57;;;;;;;29.45;5.47;;;9.10;88.90;;;;;;5129706;27;20040;-69
2022/01/03 08:47:23;;;;;;;37.53;6.25;;;9.10;88.90;;;;;;5129600;27;20035;-70
2022/01/03 08:49:48;;;;;;;45.67;8.32;;;9.10;89.00;;;;;;5129189;27;20035;-69
2022/01/03 08:52:15;;;;;;;34.30;5.30;;;9.10;89.00;;;;;;5124463;27;20076;-70
2022/01/03 08:54:41;;;;;;;32.00;5.72;;;9.10;89.10;;;;;;5128352;27;20051;-69
2022/01/03 08:57:07;;;;;;;32.70;5.53;;;9.10;89.00;;;;;;5129727;27;20047;-69
2022/01/03 08:59:32;;;;;;;45.10;7.22;;;9.10;88.80;;;;;;5130586;27;20042;-69
2022/01/03 09:01:58;;;;;;;38.75;6.47;;;9.10;89.10;;;;;;5129667;27;20503;-69
2022/01/03 09:04:24;;;;;;;29.70;5.80;;;9.10;89.10;;;;;;5129660;27;20089;-70
2022/01/03 09:06:51;;;;;;;31.00;5.95;;;9.20;89.00;;;;;;5129658;27;20139;-69
2022/01/03 09:09:17;;;;;;;47.92;6.50;;;9.30;88.80;;;;;;5112069;27;20105;-69
2022/01/03 09:11:43;;;;;;;35.70;5.45;;;9.20;88.60;;;;;;5102974;27;20495;-69
2022/01/03 09:14:09;;;;;;;35.25;6.75;;;9.20;88.60;;;;;;5129701;27;20122;-68
2022/01/03 09:16:34;;;;;;;31.38;7.32;;;9.20;88.50;;;;;;5128848;27;20049;-69
2022/01/03 09:19:00;;;;;;;30.08;5.38;;;9.20;88.60;;;;;;5123843;27;20046;-69
2022/01/03 09:21:26;;;;;;;42.40;5.93;;;9.10;88.60;;;;;;5112513;28;20038;-69
2022/01/03 09:24:05;;;;;;;39.25;6.95;;;9.20;88.60;;;;;;5128660;27;20046;-69
2022/01/03 09:29:17;;;;;;;37.75;5.32;;;9.20;88.70;;;;;;5116206;27;20048;-69
2022/01/03 09:31:43;;;;;;;36.40;5.95;;;9.10;88.60;;;;;;5110505;27;20043;-69
2022/01/03 09:34:08;;;;;;;36.05;6.65;;;9.10;88.60;;;;;;5111206;27;20422;-69
2022/01/03 09:36:35;;;;;;;41.92;6.75;;;9.10;88.70;;;;;;5127583;27;20460;-69
2022/01/03 09:39:04;;;;;;;28.40;5.97;;;9.20;88.40;;;;;;5130215;27;20076;-70
2022/01/03 09:41:31;;;;;;;40.00;7.28;;;9.20;88.20;;;;;;5130213;27;20118;-68
2022/01/03 09:44:02;;;;;;;36.97;6.32;;;9.30;88.20;;;;;;5118464;28;20044;-70
2022/01/03 09:46:34;;;;;;;30.33;6.07;;;9.30;88.20;;;;;;5124618;28;20048;-69
2022/01/03 09:49:00;;;;;;;;;;;9.30;88.20;;;;;;5126688;27;20039;-69
2022/01/03 09:51:28;;;;;;;35.03;5.18;;;9.30;87.80;;;;;;5133627;27;19968;-69
2022/01/03 09:53:59;;;;;;;31.67;7.78;;;9.40;87.80;;;;;;5133537;27;20047;-69
2022/01/03 09:56:26;;;;;;;36.90;6.57;;;9.40;87.80;;;;;;5114497;27;20035;-69
2022/01/03 09:58:52;;;;;;;32.80;5.47;;;9.40;87.60;;;;;;5133488;27;20491;-69
2022/01/03 10:01:18;;;;;;;35.47;5.18;;;9.40;87.70;;;;;;5114325;27;20205;-69
2022/01/03 10:03:47;;;;;;;34.47;6.20;;;9.40;87.70;;;;;;5132221;27;20046;-70
2022/01/03 10:06:20;;;;;;;33.55;7.07;;;9.40;87.40;;;;;;5132444;27;20492;-70
2022/01/03 10:08:47;;;;;;;27.20;6.22;;;9.40;87.30;;;;;;5133125;27;20039;-70
2022/01/03 10:11:14;;;;;;;28.70;5.00;;;9.50;87.40;;;;;;5133280;27;20221;-70
2022/01/03 10:13:40;;;;;;;37.10;8.52;;;9.50;87.20;;;;;;5133730;27;20092;-70
2022/01/03 10:16:07;;;;;;;26.33;5.15;;;9.40;87.20;;;;;;5133044;27;20035;-70
2022/01/03 10:18:33;;;;;;;41.60;7.88;;;9.50;87.50;;;;;;5130793;27;20050;-69
2022/01/03 10:21:00;;;;;;;35.88;4.95;;;9.50;87.50;;;;;;5125883;27;20046;-70
2022/01/03 10:23:26;;;;;;;35.63;7.68;;;9.50;87.40;;;;;;5132588;27;20062;-71
2022/01/03 10:25:51;;;;;;;39.13;6.40;;;9.50;87.40;;;;;;5132445;27;20043;-70
2022/01/03 10:28:25;;;;;;;31.52;5.47;;;9.60;87.40;;;;;;5132549;27;20051;-70
2022/01/03 10:30:51;;;;;;;26.33;4.55;;;9.60;87.30;;;;;;5112123;27;20459;-69
2022/01/03 10:33:19;;;;;;;41.10;8.27;;;9.60;87.30;;;;;;5123043;27;20114;-72
2022/01/03 10:35:47;;;;;;;30.20;6.55;;;9.60;86.70;;;;;;5127230;27;20039;-72
2022/01/03 10:38:32;;;;;;;28.00;5.10;;;9.70;86.90;;;;;;5122887;27;20104;-72
2022/01/03 10:41:19;;;;;;;40.20;7.07;;;9.60;86.80;;;;;;5128215;27;20081;-71
2022/01/03 10:43:56;;;;;;;43.10;5.30;;;9.60;87.00;;;;;;5092016;27;20051;-71
2022/01/03 10:46:23;;;;;;;33.25;6.22;;;9.60;87.20;;;;;;5124335;27;20043;-71
2022/01/03 10:48:55;;;;;;;33.30;5.25;;;9.70;87.00;;;;;;5127910;27;20047;-70
2022/01/03 10:51:27;;;;;;;27.80;4.88;;;9.70;87.00;;;;;;5111966;27;21765;-69
2022/01/03 10:53:55;;;;;;;39.17;5.78;;;9.80;87.00;;;;;;5131629;27;20154;-70
2022/01/03 10:56:31;;;;;;;37.30;6.22;;;9.80;86.80;;;;;;5129833;27;20050;-70
2022/01/03 10:59:25;;;;;;;34.90;5.65;;;9.80;87.10;;;;;;5128491;27;20042;-70
2022/01/03 11:01:56;;;;;;;36.67;6.68;;;9.80;86.50;;;;;;5093228;27;20099;-70
2022/01/03 11:04:49;;;;;;;37.35;5.60;;;9.80;86.60;;;;;;5129467;27;20047;-70
2022/01/03 11:13:10;;;;;;;31.73;6.53;;;9.90;86.40;;;;;;5126460;27;20043;-71
2022/01/03 11:15:38;;;;;;;34.85;5.55;;;9.90;86.50;;;;;;5132707;27;20038;-70
2022/01/03 11:18:12;;;;;;;34.88;6.85;;;9.90;86.20;;;;;;5131227;27;20188;-69
2022/01/03 11:20:39;;;;;;;34.83;5.15;;;9.90;85.80;;;;;;5132550;27;20380;-70
2022/01/03 11:23:04;;;;;;;32.58;6.00;;;9.90;86.00;;;;;;5131032;27;20070;-70
2022/01/03 11:25:32;;;;;;;29.05;5.50;;;10.00;85.70;;;;;;5113129;27;20119;-70
2022/01/03 11:28:00;;;;;;;26.27;5.05;;;10.00;85.90;;;;;;5132235;27;20054;-69
2022/01/03 11:30:26;;;;;;;24.23;5.70;;;10.00;85.30;;;;;;5131835;27;20071;-70
2022/01/03 11:32:52;;;;;;;23.70;5.30;;;10.00;85.30;;;;;;5132454;27;20039;-69
2022/01/03 11:35:18;;;;;;;31.33;6.43;;;10.00;85.70;;;;;;5131901;27;20135;-69
2022/01/03 11:37:48;;;;;;;36.65;10.65;;;10.00;85.20;;;;;;5113692;27;20129;-69
2022/01/03 11:40:16;;;;;;;26.65;5.43;;;10.00;85.60;;;;;;5132598;27;20176;-69
2022/01/03 11:42:43;;;;;;;30.25;5.97;;;10.00;85.40;;;;;;5130983;27;20046;-70
2022/01/03 11:45:09;;;;;;;31.27;4.93;;;10.10;85.40;;;;;;5131985;27;20032;-69
2022/01/03 11:47:38;;;;;;;32.20;7.13;;;10.10;85.30;;;;;;5132264;27;20058;-69
2022/01/03 11:50:06;;;;;;;29.50;5.63;;;10.10;85.40;;;;;;5132131;27;20587;-69
2022/01/03 11:52:40;;;;;;;27.27;5.47;;;10.10;85.00;;;;;;5114185;27;20395;-69
2022/01/03 11:55:07;;;;;;;34.85;4.97;;;10.10;85.30;;;;;;5096377;27;20051;-69
2022/01/03 12:06:00;;;;;;;37.38;7.00;;;10.10;85.00;;;;;;5127066;27;20090;-69
2022/01/03 12:08:29;;;;;;;24.95;4.50;;;10.20;85.10;;;;;;5111146;28;20093;-69
2022/01/03 12:10:57;;;;;;;45.40;4.82;;;10.20;85.30;;;;;;5092688;28;20162;-69
2022/01/03 12:13:52;;;;;;;36.75;6.93;;;10.10;85.60;;;;;;5111178;28;20044;-69
2022/01/03 12:16:35;;;;;;;35.72;5.68;;;10.10;85.50;;;;;;5116014;27;20041;-68
2022/01/03 12:19:01;;;;;;;34.60;6.25;;;10.20;85.50;;;;;;5131143;27;20111;-69
2022/01/03 12:22:01;;;;;;;26.13;4.75;;;10.20;85.40;;;;;;5131628;27;20055;-69
2022/01/03 12:24:26;;;;;;;26.25;5.15;;;10.20;85.00;;;;;;5070743;27;20059;-69
2022/01/03 12:27:26;;;;;;;28.45;6.35;;;10.20;85.60;;;;;;5099757;27;20039;-69
2022/01/03 12:29:57;;;;;;;30.92;5.70;;;10.30;84.90;;;;;;5112127;27;20211;-69
2022/01/03 12:32:24;;;;;;;26.57;4.57;;;10.30;84.80;;;;;;5131384;27;20172;-69
2022/01/03 12:37:35;;;;;;;31.45;6.15;;;10.30;84.50;;;;;;5110851;27;20086;-69
2022/01/03 12:40:03;;;;;;;42.30;5.93;;;10.30;84.70;;;;;;5092496;28;20044;-69
2022/01/03 12:42:53;;;;;;;35.53;6.10;;;10.30;84.30;;;;;;5128767;27;20666;-69
2022/01/03 12:45:34;;;;;;;38.40;5.32;;;10.30;84.60;;;;;;5130518;27;20103;-69
2022/01/03 12:48:09;;;;;;;32.40;5.53;;;10.20;84.90;;;;;;5130968;27;20060;-69
2022/01/03 12:50:51;;;;;;;38.88;7.75;;;10.20;84.80;;;;;;5124134;27;20047;-69
2022/01/03 12:53:48;;;;;;;28.50;7.20;;;10.20;84.90;;;;;;5119282;27;20526;-69
2022/01/03 12:56:22;;;;;;;41.83;6.78;;;10.20;84.80;;;;;;5110799;27;20098;-69
2022/01/03 12:58:52;;;;;;;33.40;6.28;;;10.20;84.90;;;;;;5094466;28;20040;-69
2022/01/03 13:01:18;;;;;;;31.10;4.90;;;10.20;84.80;;;;;;5109798;28;20043;-69
2022/01/03 13:03:52;;;;;;;31.15;5.07;;;10.10;85.10;;;;;;5122187;27;20047;-69
2022/01/03 13:06:26;;;;;;;35.15;8.20;;;10.20;84.80;;;;;;5112475;27;20058;-69
2022/01/03 13:08:54;;;;;;;33.65;5.13;;;10.20;84.70;;;;;;5130510;27;20039;-69
2022/01/03 13:11:22;;;;;;;28.52;5.53;;;10.10;85.00;;;;;;5112056;27;20043;-69
2022/01/03 13:13:52;;;;;;;31.17;4.68;;;10.10;85.00;;;;;;5130676;27;20047;-69
2022/01/03 13:16:40;;;;;;;42.80;6.28;;;10.10;85.30;;;;;;5130637;27;20621;-69
2022/01/03 13:19:13;;;;;;;32.83;5.10;;;10.10;85.00;;;;;;5109368;28;20082;-69
2022/01/03 13:21:45;;;;;;;46.53;7.15;;;10.10;85.50;;;;;;5109798;28;20035;-69